Time;durP1;ratioP1;P1;durP2;ratioP2;P2;SDS_P1;SDS_P2;PMS_P1;PMS_P2;Temp;Humidity;BMP_temperature;BMP_pressure;BME280_temperature;BME280_humidity;BME280_pressure;Samples;Min_cycle;Max_cycle;Signal;HPM_P1;HPM_P2
2021/09/20 00:01:42;;;;;;;;;;;;;;;20.20;48.29;100542.94;4988943;28;1910;-47
2021/09/20 00:04:09;;;;;;;;;;;;;;;20.16;48.60;100549.59;4994714;28;1707;-46
2021/09/20 00:06:36;;;;;;;;;;;;;;;20.30;47.97;100556.31;4990744;28;1325;-46
2021/09/20 00:09:05;;;;;;;;;;;;;;;20.40;47.46;100550.88;4993255;28;1825;-46
2021/09/20 00:11:33;;;;;;;;;;;;;;;20.25;47.90;100556.75;4976478;28;1464;-46
2021/09/20 00:14:02;;;;;;;;;;;;;;;20.31;47.40;100543.72;4982682;28;1798;-47
2021/09/20 00:16:29;;;;;;;;;;;;;;;20.32;47.84;100550.78;4992349;28;1639;-47
2021/09/20 00:18:57;;;;;;;;;;;;;;;20.78;48.27;100551.66;4993203;28;1615;-46
2021/09/20 00:21:26;;;;;;;;;;;;;;;21.01;47.20;100554.75;4992443;28;1965;-46
2021/09/20 00:23:53;;;;;;;;;;;;;;;20.80;47.09;100549.66;4989876;28;1967;-46
2021/09/20 00:26:20;;;;;;;;;;;;;;;20.50;47.36;100542.78;4990706;28;1592;-46
2021/09/20 00:28:51;;;;;;;;;;;;;;;20.07;47.39;100534.34;4981983;28;1940;-46
2021/09/20 00:31:21;;;;;;;;;;;;;;;20.14;48.51;100532.78;4982600;28;1812;-47
2021/09/20 00:34:04;;;;;;;;;;;;;;;20.22;48.32;100530.19;4990575;28;1828;-46
2021/09/20 00:36:36;;;;;;;;;;;;;;;20.31;48.61;100512.31;4980789;28;1670;-47
2021/09/20 00:39:04;;;;;;;;;;;;;;;20.32;49.11;100518.56;4978590;28;1440;-47
2021/09/20 00:41:32;;;;;;;;;;;;;;;20.23;48.31;100518.47;4976743;28;1971;-46
2021/09/20 00:44:03;;;;;;;;;;;;;;;20.33;47.66;100521.09;4975572;28;1710;-46
2021/09/20 00:46:29;;;;;;;;;;;;;;;20.15;48.15;100523.72;4983518;28;1645;-47
2021/09/20 00:48:57;;;;;;;;;;;;;;;20.27;48.47;100519.88;4975329;28;1175;-46
2021/09/20 00:51:24;;;;;;;;;;;;;;;20.48;47.98;100518.75;4989797;28;1670;-46
2021/09/20 00:53:54;;;;;;;;;;;;;;;20.75;47.65;100514.34;4990345;28;1427;-46
2021/09/20 00:56:22;;;;;;;;;;;;;;;20.86;47.32;100530.25;4986286;28;1757;-46
2021/09/20 00:58:56;;;;;;;;;;;;;;;20.72;47.15;100507.44;4993209;28;1698;-46
2021/09/20 01:01:24;;;;;;;;;;;;;;;20.46;48.29;100510.81;4983922;28;1902;-46
2021/09/20 01:03:51;;;;;;;;;;;;;;;20.15;49.00;100506.78;4978796;28;1144;-46
2021/09/20 01:06:18;;;;;;;;;;;;;;;20.53;48.82;100516.47;4994140;28;1679;-46
2021/09/20 01:08:45;;;;;;;;;;;;;;;20.70;48.99;100514.81;4992032;28;1633;-46
2021/09/20 01:11:15;;;;;;;;;;;;;;;21.13;48.31;100502.44;4997456;28;1297;-46
2021/09/20 01:16:23;;;;;;;;;;;;;;;20.66;46.51;100526.84;4997149;28;1598;-47
2021/09/20 01:18:50;;;;;;;;;;;;;;;20.29;47.39;100533.13;4995612;28;2168;-46
2021/09/20 01:21:18;;;;;;;;;;;;;;;20.29;48.58;100518.84;4992927;28;2202;-46
2021/09/20 01:23:48;;;;;;;;;;;;;;;20.51;48.13;100526.47;4979036;28;1658;-46
2021/09/20 01:26:19;;;;;;;;;;;;;;;20.79;48.60;100532.72;4988343;28;1673;-46
2021/09/20 01:28:45;;;;;;;;;;;;;;;20.97;47.93;100543.47;4986183;28;1341;-46
2021/09/20 01:31:13;;;;;;;;;;;;;;;20.86;47.89;100538.31;4985100;28;1691;-47
2021/09/20 01:33:44;;;;;;;;;;;;;;;20.81;48.65;100540.59;4995746;28;1516;-47
2021/09/20 01:36:10;;;;;;;;;;;;;;;20.55;46.98;100529.72;4994027;28;1674;-46
2021/09/20 01:38:37;;;;;;;;;;;;;;;20.30;48.97;100531.31;4989855;28;1739;-45
2021/09/20 01:41:17;;;;;;;;;;;;;;;20.26;48.36;100534.28;4997489;28;1906;-46
2021/09/20 01:46:26;;;;;;;;;;;;;;;20.76;48.57;100518.72;4996572;28;2424;-47
2021/09/20 01:48:53;;;;;;;;;;;;;;;20.77;48.22;100512.34;4993879;28;1538;-47
2021/09/20 01:51:20;;;;;;;;;;;;;;;20.68;48.52;100522.16;4993204;28;1711;-46
2021/09/20 01:53:47;;;;;;;;;;;;;;;20.61;47.47;100530.00;4986147;28;1628;-47
2021/09/20 01:56:17;;;;;;;;;;;;;;;20.62;47.69;100520.94;4984329;28;1877;-46
2021/09/20 01:58:44;;;;;;;;;;;;;;;20.41;48.50;100520.34;4994769;28;1472;-48
2021/09/20 02:01:10;;;;;;;;;;;;;;;20.44;48.81;100511.97;5109159;23;3781;-51
2021/09/20 02:03:37;;;;;;;;;;;;;;;20.51;48.18;100522.97;5012008;28;1981;-49
2021/09/20 02:06:03;;;;;;;;;;;;;;;20.61;48.17;100527.31;5013584;28;1571;-48
2021/09/20 02:08:30;;;;;;;;;;;;;;;20.41;48.13;100517.66;5013856;28;1854;-49
2021/09/20 02:10:56;;;;;;;;;;;;;;;20.36;49.21;100512.72;5014986;28;1964;-49
2021/09/20 02:13:24;;;;;;;;;;;;;;;20.54;49.24;100520.81;5013561;28;1814;-49
2021/09/20 02:15:52;;;;;;;;;;;;;;;20.53;48.91;100505.72;5007240;28;1900;-48
2021/09/20 02:18:21;;;;;;;;;;;;;;;20.39;49.35;100511.59;5000260;28;1772;-49
2021/09/20 02:20:50;;;;;;;;;;;;;;;20.18;48.21;100504.66;5002971;28;1975;-48
2021/09/20 02:23:17;;;;;;;;;;;;;;;20.10;49.34;100517.97;5014502;28;1867;-48
2021/09/20 02:25:54;;;;;;;;;;;;;;;20.42;48.34;100508.59;4997058;28;1673;-49
2021/09/20 02:28:21;;;;;;;;;;;;;;;20.54;48.19;100528.88;4996095;28;1964;-49
2021/09/20 02:30:52;;;;;;;;;;;;;;;20.50;48.73;100521.28;5014408;28;1437;-48
2021/09/20 02:33:21;;;;;;;;;;;;;;;20.26;48.44;100526.22;5014594;28;1470;-49
2021/09/20 02:35:49;;;;;;;;;;;;;;;20.24;49.21;100522.84;5013232;28;1834;-49
2021/09/20 02:38:18;;;;;;;;;;;;;;;20.12;48.60;100520.50;5013804;28;1785;-48
2021/09/20 02:40:48;;;;;;;;;;;;;;;20.23;49.32;100523.84;5015031;28;1906;-50
2021/09/20 02:43:16;;;;;;;;;;;;;;;20.20;48.85;100532.19;5014162;28;1632;-50
2021/09/20 02:45:46;;;;;;;;;;;;;;;20.27;49.35;100517.19;4997643;28;1733;-49
2021/09/20 02:48:18;;;;;;;;;;;;;;;20.14;49.14;100537.31;5000493;28;1725;-49
2021/09/20 02:50:48;;;;;;;;;;;;;;;20.16;49.68;100524.59;5002177;28;1722;-49
2021/09/20 02:53:18;;;;;;;;;;;;;;;20.39;49.35;100528.56;5008273;28;1628;-49
2021/09/20 02:55:44;;;;;;;;;;;;;;;20.23;48.94;100521.16;5001296;28;1875;-50
2021/09/20 02:58:14;;;;;;;;;;;;;;;20.49;49.29;100522.25;5000052;28;2192;-48
2021/09/20 03:00:44;;;;;;;;;;;;;;;20.65;48.88;100526.03;4996513;28;1906;-49
2021/09/20 03:03:11;;;;;;;;;;;;;;;20.51;48.36;100529.16;5014744;28;1406;-48
2021/09/20 03:05:39;;;;;;;;;;;;;;;20.22;49.33;100529.34;5012795;28;2169;-48
2021/09/20 03:08:11;;;;;;;;;;;;;;;20.01;49.22;100526.91;5013442;28;1781;-49
2021/09/20 03:10:38;;;;;;;;;;;;;;;20.00;49.63;100512.66;5014480;28;1047;-48
2021/09/20 03:13:05;;;;;;;;;;;;;;;20.36;48.87;100525.31;5012503;28;1738;-49
2021/09/20 03:15:33;;;;;;;;;;;;;;;20.31;48.85;100516.88;5012921;28;1913;-49
2021/09/20 03:18:04;;;;;;;;;;;;;;;19.99;49.08;100528.88;5013080;28;2123;-49
2021/09/20 03:20:33;;;;;;;;;;;;;;;19.96;49.67;100527.34;5012350;28;1791;-49
2021/09/20 03:23:00;;;;;;;;;;;;;;;19.96;49.34;100537.25;5013191;28;2071;-48
2021/09/20 03:25:32;;;;;;;;;;;;;;;20.07;48.83;100512.88;5011500;28;1757;-51
2021/09/20 03:28:02;;;;;;;;;;;;;;;19.92;49.65;100522.44;5007730;28;1668;-49
2021/09/20 03:30:28;;;;;;;;;;;;;;;20.01;49.43;100516.16;4998597;28;1557;-49
2021/09/20 03:32:56;;;;;;;;;;;;;;;20.25;48.79;100502.19;5002892;28;1666;-48
2021/09/20 03:35:26;;;;;;;;;;;;;;;20.47;49.69;100508.97;5000984;28;1572;-49
2021/09/20 03:37:53;;;;;;;;;;;;;;;20.67;49.04;100490.91;5000911;28;1746;-49
2021/09/20 03:40:21;;;;;;;;;;;;;;;20.49;49.43;100492.72;5013393;28;1162;-49
2021/09/20 03:42:50;;;;;;;;;;;;;;;20.15;49.29;100496.88;5007127;28;1906;-49
2021/09/20 03:45:20;;;;;;;;;;;;;;;20.02;48.95;100518.72;5005535;28;1507;-49
2021/09/20 03:47:50;;;;;;;;;;;;;;;19.96;49.46;100524.66;5001258;28;1778;-49
2021/09/20 03:50:20;;;;;;;;;;;;;;;20.04;49.71;100521.25;4993857;28;1794;-48
2021/09/20 03:52:47;;;;;;;;;;;;;;;19.92;49.15;100514.38;4993432;28;1337;-49
2021/09/20 03:55:15;;;;;;;;;;;;;;;19.86;49.87;100524.72;5012508;28;1626;-49
2021/09/20 03:57:43;;;;;;;;;;;;;;;19.99;48.96;100515.47;5005654;28;1925;-49
2021/09/20 04:00:14;;;;;;;;;;;;;;;19.79;49.66;100537.00;5008821;28;2013;-48
2021/09/20 04:02:44;;;;;;;;;;;;;;;19.75;49.10;100526.72;5002177;28;1910;-49
2021/09/20 04:05:11;;;;;;;;;;;;;;;19.85;49.66;100533.72;4999882;28;1745;-48
2021/09/20 04:07:42;;;;;;;;;;;;;;;19.98;50.13;100538.78;5012436;28;2178;-49
2021/09/20 04:10:10;;;;;;;;;;;;;;;20.09;49.14;100540.44;5013155;28;1070;-49
2021/09/20 04:12:40;;;;;;;;;;;;;;;19.90;49.12;100545.91;5011970;28;1397;-48
2021/09/20 04:15:11;;;;;;;;;;;;;;;19.70;49.02;100543.22;5001953;28;1526;-48
2021/09/20 04:17:46;;;;;;;;;;;;;;;19.71;49.63;100536.91;5001783;28;1595;-48
2021/09/20 04:22:55;;;;;;;;;;;;;;;19.81;49.37;100550.28;5000339;28;2517;-49
2021/09/20 04:25:23;;;;;;;;;;;;;;;19.74;49.40;100558.09;5011443;28;1696;-48
2021/09/20 04:27:58;;;;;;;;;;;;;;;19.95;48.63;100559.69;5004188;28;1628;-48
2021/09/20 04:30:25;;;;;;;;;;;;;;;20.01;49.25;100553.75;5009224;28;1727;-48
2021/09/20 04:32:57;;;;;;;;;;;;;;;19.97;50.03;100552.34;5011743;28;1171;-49
2021/09/20 04:35:31;;;;;;;;;;;;;;;19.92;49.50;100551.97;5011723;28;1933;-49
2021/09/20 04:38:01;;;;;;;;;;;;;;;20.25;48.89;100564.81;5011996;28;1843;-48
2021/09/20 04:40:30;;;;;;;;;;;;;;;20.01;49.03;100559.94;4992778;28;1091;-49
2021/09/20 04:43:00;;;;;;;;;;;;;;;20.02;50.10;100585.81;5007162;28;2024;-49
2021/09/20 04:45:30;;;;;;;;;;;;;;;20.05;50.13;100574.78;5007959;28;1646;-48
2021/09/20 04:47:59;;;;;;;;;;;;;;;19.90;49.25;100576.25;5011754;28;2081;-48
2021/09/20 04:50:26;;;;;;;;;;;;;;;19.91;49.66;100582.47;5011502;28;1840;-49
2021/09/20 04:52:55;;;;;;;;;;;;;;;20.00;49.16;100586.97;5010901;28;1848;-49
2021/09/20 04:55:24;;;;;;;;;;;;;;;20.00;49.82;100568.16;5008816;28;1775;-49
2021/09/20 04:57:50;;;;;;;;;;;;;;;20.48;49.24;100572.47;5007041;28;11890;-48
2021/09/20 05:00:17;;;;;;;;;;;;;;;21.21;49.77;100558.13;5010506;28;1011;-49
2021/09/20 05:02:47;;;;;;;;;;;;;;;21.53;49.61;100571.00;5012283;28;2024;-49
2021/09/20 05:05:20;;;;;;;;;;;;;;;21.73;49.79;100584.28;5011593;28;1668;-48
2021/09/20 05:07:50;;;;;;;;;;;;;;;21.84;49.51;100560.63;4993094;28;1796;-49
2021/09/20 05:10:17;;;;;;;;;;;;;;;21.96;49.64;100557.66;4993376;28;1142;-48
2021/09/20 05:12:44;;;;;;;;;;;;;;;22.09;49.99;100536.50;4998368;28;1455;-48
2021/09/20 05:15:14;;;;;;;;;;;;;;;22.15;49.52;100535.88;4999261;28;2045;-49
2021/09/20 05:17:41;;;;;;;;;;;;;;;22.20;50.12;100533.53;5006753;28;1476;-49
2021/09/20 05:20:09;;;;;;;;;;;;;;;22.27;50.52;100544.53;5008723;28;1667;-49
2021/09/20 05:22:37;;;;;;;;;;;;;;;22.30;50.43;100544.19;5008284;28;1903;-49
2021/09/20 05:25:03;;;;;;;;;;;;;;;22.39;50.06;100548.63;5009475;28;1574;-50
2021/09/20 05:27:30;;;;;;;;;;;;;;;22.50;49.92;100533.16;5005910;28;1658;-48
2021/09/20 05:29:57;;;;;;;;;;;;;;;21.62;48.01;100574.59;5011087;28;1613;-47
2021/09/20 05:32:24;;;;;;;;;;;;;;;22.09;49.47;100544.59;5012334;28;1098;-47
2021/09/20 05:34:50;;;;;;;;;;;;;;;22.28;47.75;100548.91;5010245;28;1761;-47
2021/09/20 05:37:17;;;;;;;;;;;;;;;21.93;48.47;100552.59;5010284;28;1641;-47
2021/09/20 05:39:44;;;;;;;;;;;;;;;21.87;47.21;100535.22;5012431;28;1051;-47
2021/09/20 05:42:11;;;;;;;;;;;;;;;21.92;47.45;100545.50;5009710;28;1975;-47
2021/09/20 05:44:37;;;;;;;;;;;;;;;21.96;46.84;100555.78;5008649;28;1777;-47
2021/09/20 05:47:04;;;;;;;;;;;;;;;21.94;46.60;100555.09;5014948;28;1646;-49
2021/09/20 05:49:30;;;;;;;;;;;;;;;22.09;46.99;100543.75;5014287;28;1669;-46
2021/09/20 05:51:57;;;;;;;;;;;;;;;22.08;46.69;100553.66;5014578;28;1767;-45
2021/09/20 05:54:23;;;;;;;;;;;;;;;22.13;46.84;100562.13;5013678;28;1651;-45
2021/09/20 05:57:04;;;;;;;;;;;;;;;22.52;46.06;100550.88;5013425;28;1619;-46
2021/09/20 05:59:30;;;;;;;;;;;;;;;22.29;46.08;100552.47;5014548;28;1488;-46
2021/09/20 06:01:57;;;;;;;;;;;;;;;22.31;46.39;100561.22;5014194;28;1968;-47
2021/09/20 06:04:24;;;;;;;;;;;;;;;22.43;46.42;100555.34;5012242;28;1382;-47
2021/09/20 06:06:50;;;;;;;;;;;;;;;22.44;45.74;100557.06;5014675;28;1906;-47
2021/09/20 06:09:17;;;;;;;;;;;;;;;22.59;45.83;100577.97;5014574;28;1826;-48
2021/09/20 06:11:44;;;;;;;;;;;;;;;22.73;46.35;100561.16;5013893;28;1656;-47
2021/09/20 06:14:12;;;;;;;;;;;;;;;22.68;45.87;100559.97;5014347;28;1411;-48
2021/09/20 06:16:38;;;;;;;;;;;;;;;22.72;45.54;100580.19;5014245;28;1498;-48
2021/09/20 06:19:04;;;;;;;;;;;;;;;22.63;45.45;100574.78;5015048;28;1650;-47
2021/09/20 06:21:31;;;;;;;;;;;;;;;22.76;45.40;100550.06;5013844;28;2016;-47
2021/09/20 06:23:57;;;;;;;;;;;;;;;22.79;45.88;100556.97;5013709;28;2322;-47
2021/09/20 06:29:09;;;;;;;;;;;;;;;22.89;46.39;100549.56;5012417;28;2404;-47
2021/09/20 06:31:37;;;;;;;;;;;;;;;23.13;46.64;100546.09;5010761;28;1353;-46
2021/09/20 06:34:04;;;;;;;;;;;;;;;23.15;46.34;100556.72;5008940;28;1474;-47
2021/09/20 06:36:30;;;;;;;;;;;;;;;23.23;46.23;100567.50;5012686;28;1529;-46
2021/09/20 06:38:57;;;;;;;;;;;;;;;23.24;46.81;100569.19;5013963;28;2142;-47
2021/09/20 06:41:24;;;;;;;;;;;;;;;23.22;46.84;100545.09;5007671;28;1501;-48
2021/09/20 06:43:50;;;;;;;;;;;;;;;23.22;46.06;100544.25;5010978;28;1906;-47
2021/09/20 06:46:17;;;;;;;;;;;;;;;23.33;47.01;100557.38;5011769;28;1715;-47
2021/09/20 06:48:45;;;;;;;;;;;;;;;23.30;47.24;100530.75;5008805;28;1956;-48
2021/09/20 06:51:11;;;;;;;;;;;;;;;23.37;47.40;100531.75;5013804;28;1558;-47
2021/09/20 06:53:39;;;;;;;;;;;;;;;23.39;47.33;100531.56;5012989;28;1869;-48
2021/09/20 06:56:05;;;;;;;;;;;;;;;23.38;47.45;100527.22;5008800;28;1605;-48
2021/09/20 06:58:32;;;;;;;;;;;;;;;23.42;47.45;100528.56;5009392;28;1621;-48
2021/09/20 07:00:58;;;;;;;;;;;;;;;23.52;47.46;100536.47;5011474;28;1615;-47
2021/09/20 07:03:25;;;;;;;;;;;;;;;23.47;47.47;100525.31;5009854;28;1906;-47
2021/09/20 07:05:53;;;;;;;;;;;;;;;23.50;47.53;100530.41;5006088;28;1769;-47
2021/09/20 07:08:19;;;;;;;;;;;;;;;23.45;47.69;100532.75;5011629;28;1441;-47
2021/09/20 07:10:46;;;;;;;;;;;;;;;23.48;47.91;100549.44;5014314;28;1583;-47
2021/09/20 07:13:12;;;;;;;;;;;;;;;23.47;47.62;100525.31;5012301;28;1803;-49
2021/09/20 07:15:39;;;;;;;;;;;;;;;23.49;47.98;100542.19;5013121;28;1526;-47
2021/09/20 07:18:06;;;;;;;;;;;;;;;23.49;47.67;100540.31;5013177;28;1574;-47
2021/09/20 07:20:32;;;;;;;;;;;;;;;23.53;47.08;100536.28;5008976;28;1451;-47
2021/09/20 07:23:00;;;;;;;;;;;;;;;23.52;46.25;100540.00;5013936;28;1910;-47
2021/09/20 07:25:26;;;;;;;;;;;;;;;23.52;44.81;100536.47;5005398;28;1922;-47
2021/09/20 07:27:53;;;;;;;;;;;;;;;23.50;44.63;100514.22;5013942;28;1488;-48
2021/09/20 07:30:19;;;;;;;;;;;;;;;23.48;44.32;100529.72;5011106;28;1511;-49
2021/09/20 07:32:47;;;;;;;;;;;;;;;23.49;44.74;100534.94;5011611;28;1478;-47
2021/09/20 07:35:16;;;;;;;;;;;;;;;23.48;44.50;100527.03;5006582;28;1768;-47
2021/09/20 07:37:42;;;;;;;;;;;;;;;23.56;45.12;100529.72;5005826;28;2159;-48
2021/09/20 07:40:12;;;;;;;;;;;;;;;23.58;45.88;100527.69;5011855;28;1732;-47
2021/09/20 07:42:39;;;;;;;;;;;;;;;23.66;46.00;100527.66;5013027;28;1952;-47
2021/09/20 07:45:06;;;;;;;;;;;;;;;23.68;46.02;100522.94;5013439;28;1763;-47
2021/09/20 07:47:33;;;;;;;;;;;;;;;23.68;46.08;100528.34;5012345;28;1700;-48
2021/09/20 07:49:59;;;;;;;;;;;;;;;23.75;46.28;100528.47;5012329;28;2074;-47
2021/09/20 07:52:26;;;;;;;;;;;;;;;23.72;46.28;100507.25;5006997;28;1704;-49
2021/09/20 07:54:53;;;;;;;;;;;;;;;23.73;46.52;100522.41;5012364;28;1511;-48
2021/09/20 07:57:21;;;;;;;;;;;;;;;23.73;46.69;100508.91;5013492;28;1666;-47
2021/09/20 07:59:47;;;;;;;;;;;;;;;23.73;46.59;100504.34;5008115;28;1595;-47
2021/09/20 08:02:14;;;;;;;;;;;;;;;23.66;46.92;100511.47;5012135;28;1969;-47
2021/09/20 08:04:40;;;;;;;;;;;;;;;23.65;47.31;100501.66;5007529;28;1569;-47
2021/09/20 08:07:07;;;;;;;;;;;;;;;23.65;47.61;100509.75;5012960;28;1865;-47
2021/09/20 08:09:34;;;;;;;;;;;;;;;23.65;47.94;100496.25;5003480;28;1494;-47
2021/09/20 08:12:00;;;;;;;;;;;;;;;23.65;48.12;100507.06;4998800;28;1525;-47
2021/09/20 08:14:28;;;;;;;;;;;;;;;23.64;47.89;100497.28;5002874;28;1503;-47
2021/09/20 08:16:56;;;;;;;;;;;;;;;23.68;47.95;100504.03;5001624;28;1661;-48
2021/09/20 08:19:23;;;;;;;;;;;;;;;23.72;47.53;100499.97;5006885;28;1608;-47
2021/09/20 08:21:49;;;;;;;;;;;;;;;23.74;47.40;100499.81;5009765;28;1394;-47
2021/09/20 08:24:16;;;;;;;;;;;;;;;23.76;47.72;100509.41;5003626;28;2032;-47
2021/09/20 08:26:42;;;;;;;;;;;;;;;23.73;47.60;100504.34;5011590;28;1637;-47
2021/09/20 08:29:09;;;;;;;;;;;;;;;23.73;47.39;100503.50;5007881;28;1645;-47
2021/09/20 08:31:37;;;;;;;;;;;;;;;23.72;47.40;100505.38;5012263;28;1675;-47
2021/09/20 08:34:04;;;;;;;;;;;;;;;23.76;47.36;100493.22;5013800;28;1084;-47
2021/09/20 08:36:31;;;;;;;;;;;;;;;23.71;47.46;100482.06;5008871;28;1551;-47
2021/09/20 08:38:57;;;;;;;;;;;;;;;23.74;46.93;100495.25;5010190;28;1890;-47
2021/09/20 08:41:24;;;;;;;;;;;;;;;23.82;46.73;100481.75;5012502;28;1767;-48
2021/09/20 08:43:50;;;;;;;;;;;;;;;23.89;46.78;100486.44;5011856;28;1975;-47
2021/09/20 08:46:17;;;;;;;;;;;;;;;23.85;46.39;100493.22;5010844;28;1422;-47
2021/09/20 08:48:49;;;;;;;;;;;;;;;23.80;45.93;100489.19;5009626;28;1476;-47
2021/09/20 08:51:19;;;;;;;;;;;;;;;23.80;46.81;100478.38;5011724;28;1475;-48
2021/09/20 08:53:49;;;;;;;;;;;;;;;23.84;46.65;100478.03;5009991;28;1674;-47
2021/09/20 08:56:19;;;;;;;;;;;;;;;23.80;46.05;100475.66;5004350;28;1629;-47
2021/09/20 08:58:47;;;;;;;;;;;;;;;23.87;44.84;100486.59;5004118;28;1684;-48
2021/09/20 09:01:17;;;;;;;;;;;;;;;23.85;45.48;100468.91;5010596;28;1742;-47
2021/09/20 09:03:47;;;;;;;;;;;;;;;23.86;46.09;100465.19;5002109;28;1993;-47
2021/09/20 09:06:28;;;;;;;;;;;;;;;23.86;46.93;100460.63;5002248;28;1819;-47
2021/09/20 09:08:58;;;;;;;;;;;;;;;23.88;45.73;100457.78;4995909;28;1785;-47
2021/09/20 09:11:27;;;;;;;;;;;;;;;23.86;45.67;100438.19;4991475;28;1421;-47
2021/09/20 09:13:56;;;;;;;;;;;;;;;23.89;44.81;100438.66;5012012;28;1898;-47
2021/09/20 09:16:28;;;;;;;;;;;;;;;23.85;44.64;100423.84;5008173;28;1580;-47
2021/09/20 09:19:09;;;;;;;;;;;;;;;23.95;44.72;100437.97;5012349;28;1520;-48
2021/09/20 09:21:40;;;;;;;;;;;;;;;24.01;45.38;100423.78;5016152;28;1656;-49
2021/09/20 09:24:07;;;;;;;;;;;;;;;25.26;46.19;100428.06;5016710;28;2121;-47
2021/09/20 09:26:34;;;;;;;;;;;;;;;24.74;46.88;100426.19;5014482;28;1721;-50
2021/09/20 09:29:08;;;;;;;;;;;;;;;24.12;48.43;100427.09;5012331;28;1560;-51
2021/09/20 09:31:37;;;;;;;;;;;;;;;23.96;48.43;100430.72;5011958;28;1436;-49
2021/09/20 09:34:16;;;;;;;;;;;;;;;24.26;46.39;100428.19;5013969;28;1074;-49
2021/09/20 09:36:43;;;;;;;;;;;;;;;24.04;48.57;100425.28;5014711;28;1767;-48
2021/09/20 09:39:09;;;;;;;;;;;;;;;23.82;48.01;100425.03;5015110;28;1931;-48
2021/09/20 09:41:37;;;;;;;;;;;;;;;23.85;48.68;100423.84;5003399;28;1575;-48
2021/09/20 09:44:04;;;;;;;;;;;;;;;23.78;48.56;100431.81;5015645;28;1906;-49
2021/09/20 09:46:36;;;;;;;;;;;;;;;23.87;48.82;100415.56;5017033;28;1068;-53
2021/09/20 09:49:10;;;;;;;;;;;;;;;24.00;47.77;100403.16;5013429;28;1927;-53
2021/09/20 09:51:51;;;;;;;;;;;;;;;23.96;48.00;100417.22;5014567;28;1716;-54
2021/09/20 09:54:25;;;;;;;;;;;;;;;23.91;47.71;100419.59;5013469;28;1723;-54
2021/09/20 09:57:01;;;;;;;;;;;;;;;23.92;48.14;100399.69;5011338;28;2057;-54
2021/09/20 09:59:28;;;;;;;;;;;;;;;23.93;48.06;100390.56;5016360;28;2054;-54
2021/09/20 10:01:54;;;;;;;;;;;;;;;23.94;48.54;100392.25;5014838;28;1498;-54
2021/09/20 10:04:23;;;;;;;;;;;;;;;23.91;47.93;100388.03;5007909;28;1910;-54
2021/09/20 10:06:54;;;;;;;;;;;;;;;23.90;48.45;100382.81;5015004;28;1498;-54
2021/09/20 10:09:25;;;;;;;;;;;;;;;23.89;48.13;100378.41;5017440;28;1405;-54
2021/09/20 10:11:57;;;;;;;;;;;;;;;23.86;48.19;100384.19;5014610;28;1838;-54
2021/09/20 10:14:26;;;;;;;;;;;;;;;23.89;48.37;100370.31;5015473;28;1768;-54
2021/09/20 10:16:56;;;;;;;;;;;;;;;23.89;47.96;100373.84;5009355;28;1722;-54
2021/09/20 10:19:22;;;;;;;;;;;;;;;23.86;47.65;100379.63;5016604;28;1670;-54
2021/09/20 10:21:49;;;;;;;;;;;;;;;23.81;48.07;100366.66;5020355;28;1593;-54
2021/09/20 10:24:16;;;;;;;;;;;;;;;23.85;47.83;100348.22;5013130;28;1918;-55
2021/09/20 10:26:44;;;;;;;;;;;;;;;23.88;47.88;100344.34;5011658;28;1624;-54
2021/09/20 10:29:14;;;;;;;;;;;;;;;23.87;47.50;100343.50;5013217;28;2066;-54
2021/09/20 10:31:41;;;;;;;;;;;;;;;23.89;47.71;100329.81;5012904;28;1408;-54
2021/09/20 10:34:27;;;;;;;;;;;;;;;23.89;46.89;100356.81;5009810;28;1562;-54
2021/09/20 10:36:54;;;;;;;;;;;;;;;23.91;47.37;100334.00;5012693;28;1577;-56
2021/09/20 10:39:43;;;;;;;;;;;;;;;23.87;47.66;100321.06;5014693;28;1585;-54
2021/09/20 10:42:11;;;;;;;;;;;;;;;23.82;47.22;100340.50;5007872;28;1907;-54
2021/09/20 10:44:38;;;;;;;;;;;;;;;23.82;47.28;100329.69;5008368;28;1910;-54
2021/09/20 10:47:13;;;;;;;;;;;;;;;23.84;47.07;100337.63;5014614;28;1412;-53
2021/09/20 10:49:47;;;;;;;;;;;;;;;23.84;47.27;100326.81;5009114;28;1660;-54
2021/09/20 10:52:14;;;;;;;;;;;;;;;23.82;46.64;100325.13;5009908;28;1598;-53
2021/09/20 10:54:40;;;;;;;;;;;;;;;23.82;47.13;100314.31;5014444;28;1928;-54
2021/09/20 10:57:12;;;;;;;;;;;;;;;23.85;46.78;100312.28;5008537;28;1971;-54
2021/09/20 10:59:39;;;;;;;;;;;;;;;23.87;47.28;100305.69;5011227;28;1704;-54
2021/09/20 11:02:10;;;;;;;;;;;;;;;23.87;46.74;100305.69;5010600;28;1532;-54
2021/09/20 11:04:40;;;;;;;;;;;;;;;23.87;47.30;100302.16;5006821;28;1969;-54
2021/09/20 11:07:15;;;;;;;;;;;;;;;23.85;46.73;100291.53;5009917;28;1702;-54
2021/09/20 11:09:56;;;;;;;;;;;;;;;23.89;46.98;100282.03;5012935;28;1711;-54
2021/09/20 11:12:25;;;;;;;;;;;;;;;23.91;47.82;100279.16;5007256;28;1717;-54
2021/09/20 11:15:01;;;;;;;;;;;;;;;23.84;46.67;100275.53;5015234;28;1595;-54
2021/09/20 11:17:41;;;;;;;;;;;;;;;23.82;47.14;100268.44;5012464;28;1683;-54
2021/09/20 11:20:16;;;;;;;;;;;;;;;23.82;47.19;100271.13;5006926;28;1686;-54
2021/09/20 11:22:42;;;;;;;;;;;;;;;23.80;47.26;100267.75;5006539;28;1494;-54
2021/09/20 11:25:13;;;;;;;;;;;;;;;23.79;47.48;100274.16;5010614;28;2060;-54
2021/09/20 11:27:41;;;;;;;;;;;;;;;23.86;47.17;100276.19;5006964;28;1548;-53
2021/09/20 11:30:11;;;;;;;;;;;;;;;23.80;47.01;100256.97;5011304;28;1518;-54
2021/09/20 11:32:43;;;;;;;;;;;;;;;23.80;47.34;100248.03;5010889;28;1496;-54
2021/09/20 11:35:09;;;;;;;;;;;;;;;23.82;47.41;100243.28;5002621;28;1679;-53
2021/09/20 11:37:36;;;;;;;;;;;;;;;23.88;47.45;100229.06;5013330;28;1633;-54
2021/09/20 11:40:04;;;;;;;;;;;;;;;23.92;46.96;100237.66;5010359;28;1604;-53
2021/09/20 11:42:46;;;;;;;;;;;;;;;24.00;46.79;100249.22;5011685;28;1604;-53
2021/09/20 11:45:21;;;;;;;;;;;;;;;23.97;46.48;100236.09;5005222;28;1969;-52
2021/09/20 11:47:50;;;;;;;;;;;;;;;23.93;47.34;100232.03;4999319;28;1805;-51
2021/09/20 11:50:18;;;;;;;;;;;;;;;23.91;47.34;100227.84;5006119;28;2203;-52
2021/09/20 11:52:46;;;;;;;;;;;;;;;23.90;47.57;100224.31;5001118;28;1759;-53
2021/09/20 11:55:13;;;;;;;;;;;;;;;23.88;46.95;100236.34;5012246;28;1848;-52
2021/09/20 11:57:43;;;;;;;;;;;;;;;23.89;47.56;100221.81;5013247;28;1610;-52
2021/09/20 12:00:12;;;;;;;;;;;;;;;23.86;46.74;100201.41;5009698;28;1702;-52
2021/09/20 12:02:42;;;;;;;;;;;;;;;23.84;46.67;100213.41;5012374;28;1796;-53
2021/09/20 12:05:10;;;;;;;;;;;;;;;23.86;47.77;100211.38;5012672;28;1910;-52
2021/09/20 12:07:39;;;;;;;;;;;;;;;23.84;47.59;100205.31;5020508;28;1494;-52
2021/09/20 12:10:06;;;;;;;;;;;;;;;23.82;47.62;100197.38;5012022;28;1152;-52
2021/09/20 12:12:36;;;;;;;;;;;;;;;23.87;47.33;100210.34;5010869;28;1830;-52
2021/09/20 12:15:04;;;;;;;;;;;;;;;23.83;47.61;100196.34;5012859;28;1477;-52
2021/09/20 12:17:52;;;;;;;;;;;;;;;23.85;46.28;100199.72;5012783;28;1666;-53
2021/09/20 12:20:21;;;;;;;;;;;;;;;23.86;46.68;100211.38;5007599;28;1750;-53
2021/09/20 12:22:48;;;;;;;;;;;;;;;23.87;47.58;100197.66;5011835;28;1693;-53
2021/09/20 12:25:22;;;;;;;;;;;;;;;23.84;47.45;100205.31;5012199;28;1981;-53
2021/09/20 12:27:49;;;;;;;;;;;;;;;23.89;47.02;100205.59;5012688;28;1434;-53
2021/09/20 12:30:16;;;;;;;;;;;;;;;23.88;47.18;100198.53;5012550;28;1558;-53
2021/09/20 12:32:42;;;;;;;;;;;;;;;23.87;47.42;100191.44;5013926;28;1135;-53
2021/09/20 12:35:10;;;;;;;;;;;;;;;23.89;47.30;100197.50;5010907;28;1883;-52
2021/09/20 12:37:38;;;;;;;;;;;;;;;23.86;47.14;100174.41;5004269;28;1569;-52
2021/09/20 12:40:15;;;;;;;;;;;;;;;23.88;47.26;100177.75;5005639;28;1768;-53
2021/09/20 12:42:45;;;;;;;;;;;;;;;23.90;47.58;100191.09;5011795;28;1756;-52
2021/09/20 12:45:19;;;;;;;;;;;;;;;23.85;47.57;100185.38;5009079;28;2000;-52
2021/09/20 12:47:57;;;;;;;;;;;;;;;23.87;47.32;100186.03;5007926;28;1736;-52
2021/09/20 12:53:09;;;;;;;;;;;;;;;23.91;47.69;100192.75;5011337;28;2089;-53
2021/09/20 12:55:37;;;;;;;;;;;;;;;23.89;47.91;100184.00;5006265;28;2005;-53
2021/09/20 12:58:08;;;;;;;;;;;;;;;23.93;47.49;100182.59;5013151;28;1709;-53
2021/09/20 13:00:36;;;;;;;;;;;;;;;23.93;47.52;100183.44;4994557;28;1621;-53
2021/09/20 13:03:10;;;;;;;;;;;;;;;23.97;48.24;100192.88;5011191;28;1649;-53
2021/09/20 13:05:43;;;;;;;;;;;;;;;23.93;47.76;100164.53;5011289;28;1890;-53
2021/09/20 13:08:12;;;;;;;;;;;;;;;23.94;48.06;100182.44;5012290;28;1617;-53
2021/09/20 13:10:42;;;;;;;;;;;;;;;23.95;48.29;100181.41;5004082;28;1538;-53